Time;durP1;ratioP1;P1;durP2;ratioP2;P2;SDS_P1;SDS_P2;PMS_P1;PMS_P2;Temp;Humidity;BMP_temperature;BMP_pressure;BME280_temperature;BME280_humidity;BME280_pressure;Samples;Min_cycle;Max_cycle;Signal;HPM_P1;HPM_P2
2022/04/24 00:00:54;;;;;;;16.07;11.40;;;17.10;50.50;;;;;;4895858;29;20984;-91
2022/04/24 00:03:21;;;;;;;16.17;12.33;;;17.10;50.70;;;;;;4907975;29;20234;-92
2022/04/24 00:05:49;;;;;;;21.83;13.80;;;17.00;50.60;;;;;;4912888;29;20219;-93
2022/04/24 00:08:18;;;;;;;21.13;12.40;;;17.00;50.50;;;;;;4908310;29;20213;-93
2022/04/24 00:10:46;;;;;;;18.60;12.43;;;17.00;50.70;;;;;;4911527;29;20214;-92
2022/04/24 00:13:14;;;;;;;23.33;13.60;;;16.90;50.60;;;;;;4908784;29;20211;-95
2022/04/24 00:15:42;;;;;;;14.87;10.67;;;16.90;50.70;;;;;;4915136;29;20230;-92
2022/04/24 00:18:11;;;;;;;14.03;10.90;;;16.90;50.60;;;;;;4914756;29;20233;-92
2022/04/24 00:20:40;;;;;;;20.57;12.73;;;16.80;50.50;;;;;;4911935;29;20217;-93
2022/04/24 00:23:10;;;;;;;18.17;11.70;;;16.80;50.50;;;;;;4913549;29;20212;-96
2022/04/24 00:25:37;;;;;;;16.40;10.97;;;16.70;50.40;;;;;;4922254;29;20220;-93
2022/04/24 00:28:05;;;;;;;18.20;11.77;;;16.70;50.50;;;;;;4917083;29;21382;-95
2022/04/24 00:30:33;;;;;;;19.83;11.43;;;16.70;50.50;;;;;;4910002;29;20619;-94
2022/04/24 00:33:00;;;;;;;20.43;12.27;;;16.70;50.60;;;;;;4915115;29;20300;-94
2022/04/24 00:35:31;;;;;;;18.43;11.03;;;16.60;50.50;;;;;;4913142;29;21438;-94
2022/04/24 00:37:58;;;;;;;14.90;10.23;;;16.60;50.50;;;;;;4905608;29;20218;-93
2022/04/24 00:40:25;;;;;;;20.13;11.33;;;16.60;50.40;;;;;;4911538;29;20280;-91
2022/04/24 00:42:52;;;;;;;18.50;10.23;;;16.60;50.40;;;;;;4906930;29;20662;-92
2022/04/24 00:45:20;;;;;;;12.60;8.43;;;16.60;50.50;;;;;;4913086;29;20249;-94
2022/04/24 00:47:47;;;;;;;13.20;8.83;;;16.60;50.40;;;;;;4916542;29;20214;-96
2022/04/24 00:50:14;;;;;;;14.73;9.30;;;16.60;50.30;;;;;;4915478;29;20287;-94
2022/04/24 00:52:43;;;;;;;14.90;9.47;;;16.50;50.20;;;;;;4916025;29;20223;-96
2022/04/24 00:55:11;;;;;;;14.47;8.67;;;16.50;50.20;;;;;;4914568;29;20220;-93
2022/04/24 00:57:41;;;;;;;11.87;8.57;;;16.50;50.20;;;;;;4913702;29;20207;-95
2022/04/24 01:00:09;;;;;;;12.73;8.33;;;16.50;50.10;;;;;;4914373;29;20260;-96
2022/04/24 01:02:39;;;;;;;16.13;9.47;;;16.40;50.00;;;;;;4906117;29;20202;-96
2022/04/24 01:05:09;;;;;;;13.00;8.47;;;16.40;50.10;;;;;;4915785;29;20271;-92
2022/04/24 01:07:36;;;;;;;13.17;8.67;;;16.40;50.00;;;;;;4915778;29;20885;-93
2022/04/24 01:10:07;;;;;;;14.17;8.63;;;16.40;50.00;;;;;;4914338;29;20239;-92
2022/04/24 01:12:35;;;;;;;14.43;8.23;;;16.40;50.10;;;;;;4913465;29;20288;-91
2022/04/24 01:15:06;;;;;;;10.60;7.07;;;16.30;49.90;;;;;;4915440;29;20201;-93
2022/04/24 01:17:33;;;;;;;17.67;8.63;;;16.30;49.90;;;;;;4912428;29;20209;-91
2022/04/24 01:20:01;;;;;;;12.93;7.90;;;16.30;49.90;;;;;;4913070;29;20642;-92
2022/04/24 01:22:30;;;;;;;13.10;7.27;;;16.30;49.90;;;;;;4910654;29;20275;-92
2022/04/24 01:24:57;;;;;;;10.97;7.40;;;16.30;49.80;;;;;;4915036;29;20216;-93
2022/04/24 01:27:25;;;;;;;15.10;8.77;;;16.30;49.80;;;;;;4912273;29;20216;-94
2022/04/24 01:29:52;;;;;;;13.27;7.73;;;16.20;49.80;;;;;;4913712;29;20248;-95
2022/04/24 01:32:20;;;;;;;15.33;8.03;;;16.20;49.70;;;;;;4906828;29;20236;-90
2022/04/24 01:34:49;;;;;;;12.63;7.00;;;16.20;49.80;;;;;;4905962;29;20308;-92
2022/04/24 01:37:17;;;;;;;13.83;7.77;;;16.20;49.80;;;;;;4896116;29;20199;-93
2022/04/24 01:39:45;;;;;;;13.27;7.27;;;16.10;49.70;;;;;;4907438;29;20235;-91
2022/04/24 01:42:12;;;;;;;12.37;7.07;;;16.10;49.70;;;;;;4911668;29;20991;-91
2022/04/24 01:44:40;;;;;;;12.07;7.27;;;16.10;49.70;;;;;;4912244;29;20280;-89
2022/04/24 01:47:08;;;;;;;12.23;6.87;;;16.10;49.70;;;;;;4908380;29;20252;-91
2022/04/24 01:49:35;;;;;;;12.73;6.60;;;16.10;49.70;;;;;;4905989;29;20724;-90
2022/04/24 01:52:02;;;;;;;10.53;6.30;;;16.10;49.70;;;;;;4913494;29;20626;-91
2022/04/24 01:54:29;;;;;;;13.27;6.73;;;16.10;49.70;;;;;;4915226;29;20302;-90
2022/04/24 01:56:58;;;;;;;19.10;7.57;;;16.10;49.70;;;;;;4915217;29;20564;-92
2022/04/24 01:59:27;;;;;;;14.90;7.80;;;16.10;49.80;;;;;;4916391;29;20256;-90
2022/04/24 02:01:55;;;;;;;17.80;8.20;;;16.10;49.70;;;;;;4913392;29;20234;-88
2022/04/24 02:04:23;;;;;;;11.37;6.67;;;16.10;49.80;;;;;;4917204;29;20254;-91
2022/04/24 02:06:51;;;;;;;20.67;8.63;;;16.10;49.70;;;;;;4906642;29;20320;-92
2022/04/24 02:09:18;;;;;;;12.23;7.27;;;16.20;49.80;;;;;;4917127;29;20240;-93
2022/04/24 02:11:45;;;;;;;14.20;7.43;;;16.10;49.70;;;;;;4913813;29;20621;-89
2022/04/24 02:14:14;;;;;;;12.67;7.00;;;16.10;49.70;;;;;;4912366;29;20236;-88
2022/04/24 02:16:41;;;;;;;11.90;6.63;;;16.10;49.70;;;;;;4915753;29;20246;-92
2022/04/24 02:19:17;;;;;;;14.27;7.40;;;16.10;49.70;;;;;;4915330;29;20214;-92
2022/04/24 02:21:44;;;;;;;14.00;6.63;;;16.10;49.70;;;;;;4911305;29;20717;-89
2022/04/24 02:24:11;;;;;;;12.70;7.10;;;16.20;49.70;;;;;;4915484;29;20617;-92
2022/04/24 02:26:39;;;;;;;18.77;8.33;;;16.20;49.70;;;;;;4911555;29;20245;-89
2022/04/24 02:29:07;;;;;;;9.33;6.03;;;16.20;49.70;;;;;;4915574;29;20205;-88
2022/04/24 02:31:37;;;;;;;17.20;8.07;;;16.20;49.60;;;;;;4915592;29;20208;-90
2022/04/24 02:34:04;;;;;;;8.87;5.90;;;16.20;49.60;;;;;;4915045;29;20205;-90
2022/04/24 02:36:32;;;;;;;14.83;7.33;;;16.20;49.60;;;;;;4917801;29;20229;-90
2022/04/24 02:39:00;;;;;;;12.67;6.10;;;16.20;49.70;;;;;;4917235;29;20231;-94
2022/04/24 02:41:28;;;;;;;9.33;5.83;;;16.20;49.70;;;;;;4915465;29;20209;-92
2022/04/24 02:43:56;;;;;;;10.70;6.37;;;16.20;49.60;;;;;;4915615;29;20222;-92
2022/04/24 02:46:23;;;;;;;13.00;6.60;;;16.20;49.60;;;;;;4914748;29;20289;-90
2022/04/24 02:48:56;;;;;;;14.57;5.83;;;16.20;49.60;;;;;;4917219;29;20219;-91
2022/04/24 02:51:25;;;;;;;11.00;6.53;;;16.20;50.20;;;;;;4915315;29;20250;-93
2022/04/24 02:53:53;;;;;;;11.53;6.17;;;16.20;49.60;;;;;;4919033;29;20197;-88
2022/04/24 02:56:20;;;;;;;9.73;5.50;;;16.20;49.70;;;;;;4915421;29;20205;-89
2022/04/24 02:58:48;;;;;;;10.10;6.07;;;16.20;49.60;;;;;;4915418;29;20238;-89
2022/04/24 03:01:15;;;;;;;15.87;6.23;;;16.20;49.60;;;;;;4912846;29;20215;-91
2022/04/24 03:03:45;;;;;;;8.47;5.50;;;16.30;49.70;;;;;;4915578;29;20213;-93
2022/04/24 03:06:14;;;;;;;9.60;5.47;;;16.30;49.70;;;;;;4917335;29;20208;-91
2022/04/24 03:08:42;;;;;;;17.63;7.27;;;16.30;49.70;;;;;;4916689;29;20215;-90
2022/04/24 03:11:10;;;;;;;21.27;8.93;;;16.30;49.70;;;;;;4911626;29;20234;-90
2022/04/24 03:13:37;;;;;;;12.17;6.80;;;16.30;49.70;;;;;;4914917;29;20212;-91
2022/04/24 03:16:04;;;;;;;8.57;5.50;;;16.30;49.70;;;;;;4915536;29;20262;-94
2022/04/24 03:18:32;;;;;;;9.13;5.33;;;16.30;49.70;;;;;;4919475;29;20204;-96
2022/04/24 03:21:00;;;;;;;6.80;4.97;;;16.30;49.70;;;;;;4907685;29;20235;-96
2022/04/24 03:23:29;;;;;;;12.60;6.60;;;16.30;49.70;;;;;;4915648;29;20277;-93
2022/04/24 03:25:58;;;;;;;9.23;5.77;;;16.20;49.70;;;;;;4916005;29;20742;-92
2022/04/24 03:28:25;;;;;;;17.77;8.17;;;16.30;49.70;;;;;;4914469;29;20217;-90
2022/04/24 03:30:55;;;;;;;11.23;5.70;;;16.30;49.70;;;;;;4914527;29;20224;-93
2022/04/24 03:33:22;;;;;;;11.03;5.70;;;16.30;49.80;;;;;;4914391;29;20221;-92
2022/04/24 03:35:49;;;;;;;15.10;7.70;;;16.20;49.80;;;;;;4913075;29;20205;-90
2022/04/24 03:38:16;;;;;;;12.07;6.60;;;16.20;49.80;;;;;;4918836;29;20242;-89
2022/04/24 03:40:46;;;;;;;11.43;6.43;;;16.20;49.80;;;;;;4920336;29;20270;-91
2022/04/24 03:43:13;;;;;;;9.90;5.90;;;16.20;49.80;;;;;;4918805;29;20745;-92
2022/04/24 03:45:40;;;;;;;12.37;6.40;;;16.10;49.70;;;;;;4914823;29;20724;-90
2022/04/24 03:48:07;;;;;;;11.37;6.77;;;16.20;49.80;;;;;;4916145;29;20741;-91
2022/04/24 03:50:35;;;;;;;13.87;6.70;;;16.10;49.80;;;;;;4903542;29;20348;-91
2022/04/24 03:53:04;;;;;;;9.37;6.10;;;16.10;50.00;;;;;;4896773;29;20252;-91
2022/04/24 03:55:31;;;;;;;9.53;6.10;;;16.10;49.90;;;;;;4906553;29;20210;-89
2022/04/24 03:58:00;;;;;;;9.77;6.50;;;16.10;50.30;;;;;;4916140;29;20215;-91
2022/04/24 04:00:27;;;;;;;11.00;6.70;;;16.00;50.10;;;;;;4913469;29;20609;-89
2022/04/24 04:02:55;;;;;;;11.17;6.27;;;16.00;50.20;;;;;;4916941;29;20220;-88
2022/04/24 04:05:22;;;;;;;14.00;7.03;;;16.00;50.20;;;;;;4920649;29;20214;-90
2022/04/24 04:07:49;;;;;;;13.80;7.03;;;15.90;50.10;;;;;;4923675;29;20292;-92
2022/04/24 04:10:17;;;;;;;14.43;7.90;;;15.90;50.10;;;;;;4917836;29;20626;-91
2022/04/24 04:12:48;;;;;;;12.00;6.77;;;15.90;50.10;;;;;;4918250;29;20199;-90
2022/04/24 04:15:18;;;;;;;9.63;6.20;;;15.90;50.10;;;;;;4914417;29;20658;-90
2022/04/24 04:17:45;;;;;;;13.77;7.07;;;15.90;50.10;;;;;;4916618;29;20216;-92
2022/04/24 04:20:13;;;;;;;13.27;6.50;;;15.80;50.00;;;;;;4914834;29;20248;-91
2022/04/24 04:22:51;;;;;;;10.37;6.37;;;15.70;50.00;;;;;;4914949;29;20237;-90
2022/04/24 04:25:20;;;;;;;9.00;6.00;;;15.80;50.30;;;;;;4911481;29;20205;-91
2022/04/24 04:27:47;;;;;;;14.83;7.23;;;15.70;50.20;;;;;;4915296;29;20212;-92
2022/04/24 04:30:15;;;;;;;12.27;6.93;;;15.70;50.20;;;;;;4912717;29;20327;-90
2022/04/24 04:32:44;;;;;;;10.40;6.70;;;15.70;50.30;;;;;;4913759;29;20213;-90
2022/04/24 04:35:11;;;;;;;11.33;6.03;;;15.70;50.40;;;;;;4911394;29;20263;-90
2022/04/24 04:37:40;;;;;;;13.40;7.37;;;15.60;50.30;;;;;;4914176;29;20272;-91
2022/04/24 04:40:10;;;;;;;13.83;7.50;;;15.60;50.40;;;;;;4911114;29;20233;-89
2022/04/24 04:42:39;;;;;;;12.73;7.03;;;15.60;50.40;;;;;;4914650;29;20209;-90
2022/04/24 04:45:06;;;;;;;13.50;7.10;;;15.60;50.50;;;;;;4911801;29;21050;-90
2022/04/24 04:47:33;;;;;;;10.20;6.27;;;15.60;50.60;;;;;;4916161;29;20219;-91
2022/04/24 04:50:02;;;;;;;10.57;6.83;;;15.60;50.60;;;;;;4912687;29;20329;-89
2022/04/24 04:52:30;;;;;;;13.80;7.63;;;15.60;50.80;;;;;;4915451;29;20208;-91
2022/04/24 04:54:57;;;;;;;11.73;6.97;;;15.50;50.60;;;;;;4905354;29;20300;-93
2022/04/24 04:57:24;;;;;;;12.67;6.77;;;15.50;50.80;;;;;;4912281;29;20609;-91
2022/04/24 04:59:51;;;;;;;23.43;10.43;;;15.50;50.80;;;;;;4911424;29;20212;-90
2022/04/24 05:02:18;;;;;;;12.37;7.10;;;15.40;50.90;;;;;;4898477;29;20216;-91
2022/04/24 05:04:45;;;;;;;21.00;9.57;;;15.40;50.90;;;;;;4911649;29;20200;-91
2022/04/24 05:07:16;;;;;;;12.27;7.07;;;15.40;50.90;;;;;;4913578;29;20243;-92
2022/04/24 05:09:43;;;;;;;18.83;9.07;;;15.40;50.90;;;;;;4912014;29;20302;-90
2022/04/24 05:12:11;;;;;;;11.77;6.80;;;15.40;51.60;;;;;;4913569;29;20284;-91
2022/04/24 05:14:40;;;;;;;11.60;6.90;;;15.40;51.10;;;;;;4913976;29;20246;-89
2022/04/24 05:17:07;;;;;;;13.70;7.53;;;15.40;51.20;;;;;;4911488;29;20206;-90
2022/04/24 05:19:35;;;;;;;12.73;7.23;;;15.30;51.10;;;;;;4913981;29;20239;-88
2022/04/24 05:22:02;;;;;;;13.20;7.83;;;15.30;51.70;;;;;;4911330;29;20636;-91
2022/04/24 05:24:31;;;;;;;11.60;7.30;;;15.30;51.10;;;;;;4911494;29;20212;-89
2022/04/24 05:27:00;;;;;;;12.63;8.07;;;15.20;51.10;;;;;;4913557;29;20236;-91
2022/04/24 05:29:27;;;;;;;11.43;7.63;;;15.20;51.30;;;;;;4911859;29;20237;-90
2022/04/24 05:31:55;;;;;;;16.90;9.00;;;15.20;51.40;;;;;;4910529;29;20235;-91
2022/04/24 05:34:22;;;;;;;18.03;8.83;;;15.20;51.40;;;;;;4911502;29;20234;-92
2022/04/24 05:36:49;;;;;;;14.63;8.43;;;15.10;51.30;;;;;;4911568;29;20288;-92
2022/04/24 05:39:16;;;;;;;21.77;10.00;;;15.20;51.60;;;;;;4911163;29;20224;-91
2022/04/24 05:41:45;;;;;;;15.53;8.90;;;15.10;51.70;;;;;;4910717;29;20661;-91
2022/04/24 05:44:13;;;;;;;12.57;7.77;;;15.10;51.70;;;;;;4912230;29;20277;-91
2022/04/24 05:46:40;;;;;;;13.00;8.10;;;15.10;51.90;;;;;;4894452;29;20285;-91
2022/04/24 05:49:44;;;;;;;18.97;9.80;;;15.00;52.00;;;;;;4899348;29;20212;-92
2022/04/24 05:52:11;;;;;;;13.97;8.70;;;15.00;52.10;;;;;;4908530;29;20267;-88
2022/04/24 05:54:38;;;;;;;14.60;8.33;;;15.00;52.30;;;;;;4911886;29;20577;-89
2022/04/24 05:57:07;;;;;;;15.30;8.30;;;15.00;52.10;;;;;;4913092;29;20271;-91
2022/04/24 05:59:34;;;;;;;13.80;8.73;;;15.00;52.50;;;;;;4910466;29;20302;-89
2022/04/24 06:02:01;;;;;;;17.83;9.93;;;15.00;52.40;;;;;;4911946;29;20293;-91
2022/04/24 06:04:29;;;;;;;17.93;9.23;;;15.00;52.60;;;;;;4910986;29;20216;-92
2022/04/24 06:06:56;;;;;;;14.00;8.63;;;15.00;52.90;;;;;;4912610;29;20303;-92
2022/04/24 06:09:23;;;;;;;14.43;8.67;;;15.00;53.00;;;;;;4910742;29;20236;-89
2022/04/24 06:11:50;;;;;;;17.23;9.70;;;14.90;53.10;;;;;;4912154;29;20695;-92
2022/04/24 06:14:19;;;;;;;14.27;8.60;;;15.00;53.10;;;;;;4911300;29;20757;-90
2022/04/24 06:16:46;;;;;;;16.70;9.63;;;15.00;53.20;;;;;;4911344;29;20265;-91
2022/04/24 06:19:16;;;;;;;12.10;8.10;;;15.00;53.20;;;;;;4911649;29;20285;-90
2022/04/24 06:21:43;;;;;;;13.97;9.03;;;14.90;53.30;;;;;;4911636;29;20224;-91
2022/04/24 06:24:10;;;;;;;16.83;10.07;;;15.00;53.40;;;;;;4911831;29;20243;-93
2022/04/24 06:26:37;;;;;;;17.07;8.97;;;15.00;53.40;;;;;;4912414;29;20776;-93
2022/04/24 06:29:04;;;;;;;16.53;9.47;;;15.00;53.40;;;;;;4910083;29;20256;-94
2022/04/24 06:31:40;;;;;;;23.63;11.63;;;15.00;53.60;;;;;;4911415;29;20232;-90
2022/04/24 06:34:07;;;;;;;20.10;10.87;;;15.00;53.80;;;;;;4911966;29;22149;-91
2022/04/24 06:36:34;;;;;;;14.37;9.03;;;15.00;53.80;;;;;;4912506;29;20299;-88
2022/04/24 06:39:01;;;;;;;22.73;11.90;;;15.00;53.80;;;;;;4914015;29;20237;-91
2022/04/24 06:41:30;;;;;;;15.07;9.53;;;15.10;53.90;;;;;;4915198;29;20209;-89
2022/04/24 06:43:58;;;;;;;16.07;9.87;;;15.10;54.50;;;;;;4910333;29;20258;-92
2022/04/24 06:46:25;;;;;;;22.10;11.37;;;15.10;54.00;;;;;;4904844;29;20283;-90
2022/04/24 06:48:53;;;;;;;19.30;10.53;;;15.10;53.90;;;;;;4908862;29;20352;-89
2022/04/24 06:51:20;;;;;;;21.93;10.53;;;15.10;53.90;;;;;;4905837;29;20268;-91
2022/04/24 06:53:47;;;;;;;22.60;10.70;;;15.20;54.00;;;;;;4905857;29;20204;-91
2022/04/24 06:56:15;;;;;;;19.40;10.80;;;15.20;54.00;;;;;;4928302;29;20229;-91
2022/04/24 06:58:42;;;;;;;17.93;9.77;;;15.20;54.00;;;;;;4913220;29;20654;-91
2022/04/24 07:01:09;;;;;;;17.90;10.47;;;15.20;54.00;;;;;;4909053;29;20770;-90
2022/04/24 07:03:36;;;;;;;19.90;9.50;;;15.20;54.00;;;;;;4915209;29;20216;-89
2022/04/24 07:06:07;;;;;;;16.93;10.40;;;15.30;54.10;;;;;;4918248;29;20221;-92
2022/04/24 07:08:35;;;;;;;20.57;10.87;;;15.30;54.20;;;;;;4916563;29;20231;-89
2022/04/24 07:11:05;;;;;;;14.23;9.30;;;15.30;54.10;;;;;;4914246;29;20355;-92
2022/04/24 07:13:32;;;;;;;13.70;9.57;;;15.30;54.20;;;;;;4906787;29;20594;-94
2022/04/24 07:15:59;;;;;;;14.20;8.87;;;15.30;54.00;;;;;;4913031;29;20214;-92
2022/04/24 07:18:28;;;;;;;13.20;9.33;;;15.40;54.20;;;;;;4916693;29;20209;-93
2022/04/24 07:20:56;;;;;;;16.40;9.37;;;15.40;54.20;;;;;;4918006;29;20240;-92
2022/04/24 07:23:24;;;;;;;14.40;8.40;;;15.50;54.20;;;;;;4896033;29;20205;-93
2022/04/24 07:25:52;;;;;;;13.47;9.43;;;15.50;54.20;;;;;;4914753;29;20212;-89
2022/04/24 07:28:19;;;;;;;19.97;11.07;;;15.50;54.10;;;;;;4914155;29;20287;-91
2022/04/24 07:30:48;;;;;;;15.20;9.30;;;15.60;54.10;;;;;;4911964;29;20206;-89
2022/04/24 07:33:15;;;;;;;19.63;10.60;;;15.60;54.00;;;;;;4911585;29;20256;-88
2022/04/24 07:35:43;;;;;;;20.33;11.00;;;15.70;53.80;;;;;;4912932;29;20274;-89
2022/04/24 07:38:11;;;;;;;11.47;8.23;;;15.70;53.60;;;;;;4917342;29;20916;-93
2022/04/24 07:40:40;;;;;;;19.30;10.87;;;15.80;53.60;;;;;;4915298;29;20657;-89
2022/04/24 07:43:12;;;;;;;15.87;9.73;;;15.90;53.70;;;;;;4925531;29;20211;-94
2022/04/24 07:45:42;;;;;;;16.63;9.33;;;15.90;53.60;;;;;;4921326;29;20212;-91
2022/04/24 07:48:10;;;;;;;15.30;10.03;;;16.00;53.60;;;;;;4918095;29;20773;-95
2022/04/24 07:50:39;;;;;;;12.53;9.03;;;16.00;53.60;;;;;;4915256;29;20208;-93
2022/04/24 07:53:07;;;;;;;15.63;9.47;;;16.10;53.60;;;;;;4911019;29;20229;-91
2022/04/24 07:55:34;;;;;;;15.30;9.03;;;16.20;53.50;;;;;;4900608;29;20223;-88
2022/04/24 07:58:03;;;;;;;15.37;9.47;;;16.20;53.30;;;;;;4905692;29;20273;-91
2022/04/24 08:00:31;;;;;;;16.13;9.77;;;16.20;52.90;;;;;;4910881;29;20211;-94
2022/04/24 08:03:01;;;;;;;13.57;8.60;;;16.30;52.70;;;;;;4899817;29;20292;-95
2022/04/24 08:05:30;;;;;;;12.83;8.83;;;16.30;53.20;;;;;;4904209;29;20205;-91
2022/04/24 08:08:04;;;;;;;10.00;7.60;;;16.40;52.70;;;;;;4917992;29;20273;-96
2022/04/24 08:10:35;;;;;;;15.33;8.80;;;16.50;52.70;;;;;;4917773;29;20255;-95
2022/04/24 08:13:05;;;;;;;13.47;9.23;;;16.50;52.30;;;;;;4914597;29;20233;-95
2022/04/24 08:15:37;;;;;;;18.47;9.60;;;16.60;52.10;;;;;;4915452;29;20281;-91
2022/04/24 08:18:05;;;;;;;15.47;8.67;;;16.70;52.30;;;;;;4909863;29;20306;-90
2022/04/24 08:20:34;;;;;;;19.23;10.23;;;16.70;51.90;;;;;;4911239;29;20767;-90
2022/04/24 08:23:03;;;;;;;12.93;8.57;;;16.80;51.80;;;;;;4905122;29;20232;-90
2022/04/24 08:25:34;;;;;;;18.23;9.77;;;16.90;51.60;;;;;;4911014;29;20214;-92
2022/04/24 08:28:06;;;;;;;12.33;8.13;;;16.90;51.60;;;;;;4912749;29;20219;-88
2022/04/24 08:30:35;;;;;;;11.27;8.10;;;17.00;51.50;;;;;;4909020;29;20227;-92
2022/04/24 08:33:03;;;;;;;14.60;9.37;;;17.10;51.20;;;;;;4912656;29;20324;-90
2022/04/24 08:35:33;;;;;;;11.13;8.23;;;17.10;51.10;;;;;;4910671;29;20214;-92
2022/04/24 08:38:01;;;;;;;12.13;8.60;;;17.20;50.60;;;;;;4913423;29;20227;-89
2022/04/24 08:40:28;;;;;;;13.90;9.43;;;17.30;50.50;;;;;;4914685;29;20215;-90
2022/04/24 08:42:56;;;;;;;10.73;8.33;;;17.40;50.40;;;;;;4912556;29;20207;-89
2022/04/24 08:45:28;;;;;;;11.20;8.13;;;17.40;50.30;;;;;;4913584;29;20302;-88
2022/04/24 08:47:56;;;;;;;18.67;9.90;;;17.50;50.10;;;;;;4913681;29;20284;-92
2022/04/24 08:50:27;;;;;;;16.77;9.47;;;17.60;50.20;;;;;;4912246;29;20294;-92
2022/04/24 08:52:56;;;;;;;16.10;10.03;;;17.70;50.40;;;;;;4913283;29;20238;-88
2022/04/24 08:55:26;;;;;;;13.70;8.20;;;17.80;50.00;;;;;;4913314;29;20286;-89
2022/04/24 08:57:53;;;;;;;17.33;10.23;;;17.90;50.20;;;;;;4913381;29;20304;-91
2022/04/24 09:00:21;;;;;;;16.67;9.33;;;18.10;50.50;;;;;;4912924;29;20231;-91
2022/04/24 09:02:51;;;;;;;13.93;8.90;;;18.30;50.60;;;;;;4905541;29;20277;-91
2022/04/24 09:05:18;;;;;;;13.10;8.90;;;18.40;50.50;;;;;;4913314;29;20243;-90
2022/04/24 09:07:46;;;;;;;16.27;9.03;;;18.60;49.90;;;;;;4913654;29;20681;-87
2022/04/24 09:10:14;;;;;;;18.37;10.13;;;18.80;49.40;;;;;;4918009;29;20295;-90
2022/04/24 09:12:41;;;;;;;13.47;8.63;;;19.00;49.70;;;;;;4910953;29;20255;-90
2022/04/24 09:15:09;;;;;;;13.93;8.50;;;19.10;49.00;;;;;;4912031;29;20635;-90
2022/04/24 09:17:38;;;;;;;13.93;9.03;;;19.30;49.10;;;;;;4906737;29;20205;-92
2022/04/24 09:20:19;;;;;;;17.57;10.17;;;19.50;48.10;;;;;;4908318;29;20205;-90
2022/04/24 09:22:47;;;;;;;15.47;9.43;;;19.70;47.80;;;;;;4915002;29;20343;-89
2022/04/24 09:25:14;;;;;;;13.17;9.03;;;19.90;47.50;;;;;;4904042;29;20284;-89
2022/04/24 09:27:41;;;;;;;10.33;7.60;;;20.00;47.60;;;;;;4900668;29;20210;-89
2022/04/24 09:30:13;;;;;;;12.07;8.23;;;20.20;47.50;;;;;;4913719;29;20208;-91
2022/04/24 09:32:48;;;;;;;17.80;9.47;;;20.30;46.90;;;;;;4904028;29;20320;-89
2022/04/24 09:35:28;;;;;;;16.10;8.17;;;20.50;46.60;;;;;;4913155;29;20649;-89
2022/04/24 09:38:07;;;;;;;10.77;7.87;;;20.70;46.20;;;;;;4912676;29;20250;-88
2022/04/24 09:40:39;;;;;;;14.57;9.47;;;20.80;45.50;;;;;;4903319;29;20219;-88
2022/04/24 09:43:09;;;;;;;10.13;7.37;;;20.90;45.70;;;;;;4915023;29;20213;-93
2022/04/24 09:45:37;;;;;;;17.53;10.07;;;21.00;45.20;;;;;;4909776;29;20229;-93
2022/04/24 09:48:19;;;;;;;13.07;7.70;;;21.10;45.30;;;;;;4913277;29;20213;-89
2022/04/24 09:50:50;;;;;;;11.13;8.30;;;21.20;45.50;;;;;;4911247;29;20275;-93
2022/04/24 09:53:19;;;;;;;18.47;10.87;;;21.30;45.00;;;;;;4909610;29;20335;-92
2022/04/24 09:55:49;;;;;;;9.90;7.70;;;21.40;45.20;;;;;;4909373;29;20292;-91
2022/04/24 09:58:16;;;;;;;15.17;9.50;;;21.50;45.60;;;;;;4911677;29;20197;-92
2022/04/24 10:00:44;;;;;;;11.40;7.77;;;21.60;45.50;;;;;;4910902;29;20211;-92
2022/04/24 10:03:14;;;;;;;8.53;7.57;;;21.80;45.20;;;;;;4913496;29;20647;-92
2022/04/24 10:05:43;;;;;;;14.57;9.53;;;21.90;44.00;;;;;;4909733;29;20215;-89
2022/04/24 10:08:12;;;;;;;10.73;8.23;;;22.00;43.30;;;;;;4913305;29;20222;-88
2022/04/24 10:10:39;;;;;;;10.30;7.63;;;22.00;43.70;;;;;;4911705;29;20215;-90
2022/04/24 10:13:10;;;;;;;9.77;7.93;;;22.10;43.80;;;;;;4909624;29;20229;-90
2022/04/24 10:15:40;;;;;;;10.33;7.60;;;22.20;44.10;;;;;;4912606;29;20670;-92
2022/04/24 10:18:33;;;;;;;10.77;7.87;;;22.30;44.20;;;;;;4904596;29;20243;-96
2022/04/24 10:21:17;;;;;;;10.87;7.47;;;22.50;43.10;;;;;;4924867;29;20234;-91
2022/04/24 10:23:46;;;;;;;14.33;7.77;;;22.60;43.50;;;;;;4906716;29;20220;-90
2022/04/24 10:26:21;;;;;;;11.33;8.20;;;22.70;43.80;;;;;;4917365;29;20301;-94
2022/04/24 10:28:48;;;;;;;11.87;8.13;;;22.80;42.80;;;;;;4915288;29;22297;-91
2022/04/24 10:31:16;;;;;;;9.57;7.53;;;22.90;42.40;;;;;;4908133;29;20208;-92
2022/04/24 10:33:54;;;;;;;11.30;7.90;;;23.00;42.20;;;;;;4916114;29;20240;-90
2022/04/24 10:36:24;;;;;;;17.73;9.20;;;23.10;41.30;;;;;;4908631;29;20326;-92
2022/04/24 10:38:56;;;;;;;13.27;8.50;;;23.20;41.60;;;;;;4912972;29;20228;-90
2022/04/24 10:41:25;;;;;;;12.70;8.03;;;23.20;41.50;;;;;;4915860;29;20284;-89
2022/04/24 10:43:57;;;;;;;10.17;7.40;;;23.30;40.70;;;;;;4911091;29;20327;-91
2022/04/24 10:46:30;;;;;;;12.67;8.10;;;23.40;41.20;;;;;;4905466;29;20776;-93
2022/04/24 10:49:08;;;;;;;11.37;8.10;;;23.40;41.10;;;;;;4913537;29;20370;-91
2022/04/24 10:51:36;;;;;;;11.47;7.73;;;23.50;39.80;;;;;;4916464;29;20208;-90
2022/04/24 10:54:08;;;;;;;10.33;7.00;;;23.50;40.20;;;;;;4917532;29;20209;-94
2022/04/24 10:56:39;;;;;;;11.93;7.43;;;23.50;39.20;;;;;;4911275;29;20213;-91
2022/04/24 10:59:10;;;;;;;9.27;6.97;;;23.50;39.50;;;;;;4911978;29;20241;-95
2022/04/24 11:01:44;;;;;;;15.33;8.50;;;23.60;39.40;;;;;;4916752;29;20205;-90
2022/04/24 11:04:14;;;;;;;8.70;6.73;;;23.60;39.50;;;;;;4913327;29;20248;-89
2022/04/24 11:06:52;;;;;;;10.37;8.37;;;23.60;41.10;;;;;;4911222;29;20209;-89
2022/04/24 11:09:21;;;;;;;12.50;8.77;;;23.70;42.20;;;;;;4908025;29;20205;-94
2022/04/24 11:11:51;;;;;;;14.33;8.90;;;23.80;43.20;;;;;;4916892;29;20563;-89
2022/04/24 11:14:22;;;;;;;11.27;8.20;;;23.80;43.00;;;;;;4911620;29;20210;-94
2022/04/24 11:16:51;;;;;;;11.63;8.00;;;24.00;42.80;;;;;;4918579;29;20208;-91
2022/04/24 11:19:23;;;;;;;11.47;8.33;;;24.00;43.00;;;;;;4919179;29;20308;-92
2022/04/24 11:21:56;;;;;;;11.13;7.80;;;24.10;43.10;;;;;;4908582;29;20248;-94
2022/04/24 11:24:25;;;;;;;16.00;9.70;;;24.20;43.00;;;;;;4919580;29;20210;-90
2022/04/24 11:26:53;;;;;;;11.53;7.73;;;24.40;42.60;;;;;;4918452;29;21041;-90
2022/04/24 11:29:21;;;;;;;14.80;9.17;;;24.40;43.30;;;;;;4907223;29;20245;-92
2022/04/24 11:31:49;;;;;;;10.40;8.30;;;24.50;43.40;;;;;;4904341;29;20209;-92
2022/04/24 11:34:20;;;;;;;11.77;8.60;;;24.50;42.80;;;;;;4912174;29;20205;-89
2022/04/24 11:36:48;;;;;;;11.60;8.57;;;24.70;43.30;;;;;;4908795;29;20223;-93
2022/04/24 11:39:20;;;;;;;11.93;7.47;;;24.70;42.60;;;;;;4905931;29;20280;-92
2022/04/24 11:41:48;;;;;;;12.17;8.73;;;24.80;43.10;;;;;;4901823;29;20217;-95
2022/04/24 11:52:37;;;;;;;12.13;7.97;;;25.10;42.70;;;;;;4908208;29;20247;-91
2022/04/24 11:55:14;;;;;;;14.87;9.57;;;25.10;42.50;;;;;;4911303;29;20213;-92
2022/04/24 11:57:44;;;;;;;13.70;8.77;;;25.20;41.70;;;;;;4913526;29;20294;-91
2022/04/24 12:00:19;;;;;;;14.87;9.73;;;25.30;42.40;;;;;;4908625;29;20209;-94
2022/04/24 12:02:47;;;;;;;12.97;9.00;;;25.40;42.10;;;;;;4912628;29;20251;-92
2022/04/24 12:05:14;;;;;;;11.67;8.23;;;25.40;42.30;;;;;;4911706;29;20600;-89
2022/04/24 12:07:42;;;;;;;14.27;9.57;;;25.50;42.40;;;;;;4906936;29;20268;-92
2022/04/24 12:10:11;;;;;;;14.40;9.83;;;25.50;42.00;;;;;;4909501;29;20236;-91
2022/04/24 12:12:48;;;;;;;13.13;8.63;;;25.60;41.50;;;;;;4910461;29;20572;-93
2022/04/24 12:15:16;;;;;;;10.17;8.00;;;25.60;41.20;;;;;;4904345;29;20305;-90
2022/04/24 12:17:50;;;;;;;14.90;9.60;;;25.60;41.80;;;;;;4900579;29;20226;-92
2022/04/24 12:20:17;;;;;;;11.83;8.17;;;25.60;41.50;;;;;;4912595;29;20212;-93
2022/04/24 12:22:45;;;;;;;11.57;8.80;;;25.60;41.80;;;;;;4912215;29;20295;-92
2022/04/24 12:25:17;;;;;;;11.33;7.93;;;25.60;41.80;;;;;;4914765;29;20872;-93
2022/04/24 12:27:54;;;;;;;11.90;8.97;;;25.60;41.80;;;;;;4905594;29;20216;-90
2022/04/24 12:30:22;;;;;;;14.63;9.93;;;25.70;41.80;;;;;;4898687;29;20209;-92
2022/04/24 12:32:49;;;;;;;14.17;8.20;;;25.70;41.80;;;;;;4906486;29;20402;-92
2022/04/24 12:35:30;;;;;;;16.73;8.83;;;25.70;41.90;;;;;;4909441;29;20215;-92
2022/04/24 12:37:58;;;;;;;15.73;9.63;;;25.70;41.80;;;;;;4898602;29;20237;-92
2022/04/24 12:40:25;;;;;;;11.27;7.83;;;25.70;41.80;;;;;;4913611;29;20213;-92
2022/04/24 12:42:54;;;;;;;11.03;9.27;;;25.70;41.80;;;;;;4903120;29;20780;-89
2022/04/24 12:45:22;;;;;;;13.87;8.73;;;25.80;41.10;;;;;;4903774;29;20219;-94
2022/04/24 12:47:49;;;;;;;13.00;8.47;;;25.80;41.30;;;;;;4907686;29;20682;-94
2022/04/24 12:50:17;;;;;;;12.80;7.97;;;25.80;40.80;;;;;;4915202;29;20216;-91
2022/04/24 12:52:45;;;;;;;12.07;9.13;;;25.90;41.20;;;;;;4909732;29;20220;-93